Trout Dale, Virginia
Current Conditions -  °F | °C
As of 1:55 AM on Thursday 27 Nov 2014 (Local Time) from KMKJ Reporting Station
Moderate Fog Moderate Fog  
Wind Chill: 33°   Ceiling: 100
Heat Index: 33°   Visibility: 0.5mi
Dew Point: 32°   Wind: 0mph
Humidity: 97%   Direction: NA
Pressure: 29.98"   Gusts: NA
Location:  36.6855°N, 81.435°W
Report Text: KMKJ 270655Z AUTO 00000KT 1/2SM FG OVC001 00/00 A2998 RMK AO2 T00040000
Loading
Personal Weather Stations






























Interactive Weather Map New forecast layout! Learn more

10-Day Weather Forecast

Advertisements
Track Severe Weather on mobile